Time;durP1;ratioP1;P1;durP2;ratioP2;P2;SDS_P1;SDS_P2;PMS_P1;PMS_P2;Temp;Humidity;BMP_temperature;BMP_pressure;BME280_temperature;BME280_humidity;BME280_pressure;Samples;Min_cycle;Max_cycle;Signal;HPM_P1;HPM_P2
2022/07/27 00:01:36;;;;;;;2.20;1.10;;;-7.00;99.90;;;;;;5018130;28;20464;-72
2022/07/27 00:04:02;;;;;;;2.47;1.30;;;-7.50;99.90;;;;;;5017213;28;20596;-71
2022/07/27 00:06:28;;;;;;;6.60;1.50;;;-7.50;99.90;;;;;;5018196;28;20162;-73
2022/07/27 00:08:54;;;;;;;1.77;1.30;;;-6.70;99.90;;;;;;5018396;28;20513;-72
2022/07/27 00:11:20;;;;;;;3.53;1.27;;;-5.90;99.90;;;;;;5018401;28;20173;-73
2022/07/27 00:13:46;;;;;;;1.97;0.90;;;-5.70;99.90;;;;;;5018876;28;20288;-71
2022/07/27 00:16:12;;;;;;;1.43;0.90;;;-5.40;99.90;;;;;;5018236;28;20608;-74
2022/07/27 00:18:38;;;;;;;3.97;0.93;;;-6.40;99.90;;;;;;5018108;28;20166;-72
2022/07/27 00:21:04;;;;;;;1.13;1.00;;;-6.40;99.90;;;;;;5018881;28;20581;-74
2022/07/27 00:23:30;;;;;;;5.23;1.10;;;-5.80;99.90;;;;;;5018674;28;20181;-72
2022/07/27 00:25:56;;;;;;;2.40;1.20;;;-5.40;99.90;;;;;;5018143;28;20166;-74
2022/07/27 00:28:22;;;;;;;2.43;1.00;;;-4.60;99.90;;;;;;5017842;28;20173;-72
2022/07/27 00:30:48;;;;;;;1.23;1.10;;;-4.60;99.90;;;;;;5017745;28;20252;-73
2022/07/27 00:33:13;;;;;;;1.17;1.03;;;-6.10;99.90;;;;;;5017879;28;20201;-72
2022/07/27 00:35:39;;;;;;;2.00;1.27;;;-5.20;99.90;;;;;;5017647;28;20256;-72
2022/07/27 00:38:05;;;;;;;1.83;0.80;;;-6.10;99.90;;;;;;5017667;28;20176;-73
2022/07/27 00:40:31;;;;;;;7.37;1.83;;;-5.20;99.90;;;;;;5017602;28;20174;-72
2022/07/27 00:42:57;;;;;;;1.37;0.70;;;-5.70;99.90;;;;;;5017399;28;20533;-73
2022/07/27 00:45:23;;;;;;;2.97;1.30;;;-5.00;99.90;;;;;;5017497;28;20178;-73
2022/07/27 00:47:49;;;;;;;3.50;1.10;;;-7.00;99.90;;;;;;5017319;28;20193;-73
2022/07/27 00:50:15;;;;;;;2.13;1.30;;;-7.60;99.90;;;;;;5017465;28;20215;-74
2022/07/27 00:52:41;;;;;;;4.10;1.73;;;-6.90;99.90;;;;;;5017286;28;20212;-72
2022/07/27 00:55:07;;;;;;;3.77;1.27;;;-5.90;99.90;;;;;;5017432;28;20158;-71
2022/07/27 00:57:33;;;;;;;2.20;0.97;;;-5.40;99.90;;;;;;5016891;28;20620;-71
2022/07/27 00:59:59;;;;;;;1.53;1.00;;;-5.10;99.90;;;;;;5017420;28;20170;-72
2022/07/27 01:02:25;;;;;;;4.77;1.70;;;-5.80;99.90;;;;;;5016228;28;20178;-73
2022/07/27 01:04:51;;;;;;;1.67;1.07;;;-8.10;99.90;;;;;;5017340;28;20596;-71
2022/07/27 01:07:17;;;;;;;5.83;1.53;;;-8.50;99.90;;;;;;5017152;28;20176;-71
2022/07/27 01:09:56;;;;;;;2.47;1.63;;;-6.80;99.90;;;;;;5017298;28;20173;-72
2022/07/27 01:12:24;;;;;;;2.40;1.03;;;-6.00;99.90;;;;;;5016765;28;20205;-72
2022/07/27 01:14:51;;;;;;;2.43;1.33;;;-6.30;99.90;;;;;;5017094;28;20181;-73
2022/07/27 01:17:18;;;;;;;3.13;1.20;;;-7.10;99.90;;;;;;5016003;28;20608;-72
2022/07/27 01:19:44;;;;;;;3.00;1.53;;;-8.00;99.90;;;;;;5017135;28;20219;-72
2022/07/27 01:22:10;;;;;;;5.13;1.67;;;-7.80;99.90;;;;;;5016864;28;20172;-72
2022/07/27 01:24:36;;;;;;;5.73;1.73;;;-6.60;99.90;;;;;;5017057;28;20174;-71
2022/07/27 01:27:03;;;;;;;3.10;1.10;;;-7.10;99.90;;;;;;5015557;28;20169;-71
2022/07/27 01:29:30;;;;;;;3.87;1.20;;;-6.40;99.90;;;;;;5015975;28;20169;-74
2022/07/27 01:31:56;;;;;;;1.63;1.10;;;-7.70;99.90;;;;;;5016557;28;20189;-72
2022/07/27 01:34:22;;;;;;;3.07;1.60;;;-10.10;99.90;;;;;;5016659;28;20618;-71
2022/07/27 01:36:48;;;;;;;2.70;1.30;;;-9.20;99.90;;;;;;5016625;28;20166;-73
2022/07/27 01:39:15;;;;;;;9.70;1.27;;;-7.70;99.90;;;;;;5016707;28;20522;-72
2022/07/27 01:41:41;;;;;;;1.27;1.13;;;-9.40;99.90;;;;;;5016464;28;20165;-72
2022/07/27 01:44:07;;;;;;;4.80;1.97;;;-8.20;99.90;;;;;;5016455;28;20671;-73
2022/07/27 01:46:33;;;;;;;3.33;1.03;;;-9.10;99.90;;;;;;5016673;28;20180;-71
2022/07/27 01:48:59;;;;;;;1.60;1.03;;;-7.60;99.90;;;;;;5016672;28;20460;-73
2022/07/27 01:51:25;;;;;;;3.93;1.57;;;-8.10;99.90;;;;;;5016504;28;20203;-75
2022/07/27 01:53:50;;;;;;;3.37;1.00;;;-8.00;99.90;;;;;;5016394;28;20236;-73
2022/07/27 01:56:16;;;;;;;5.23;1.20;;;-10.00;99.90;;;;;;5016275;28;20575;-71
2022/07/27 01:58:42;;;;;;;3.47;1.50;;;-10.20;99.90;;;;;;5015393;28;20478;-71
2022/07/27 02:01:08;;;;;;;2.77;1.20;;;-10.70;99.90;;;;;;5016494;28;20197;-71
2022/07/27 02:03:35;;;;;;;4.53;1.73;;;-11.60;99.90;;;;;;5016408;28;20192;-72
2022/07/27 02:06:01;;;;;;;2.40;1.47;;;-10.60;99.90;;;;;;5016219;28;20596;-72
2022/07/27 02:08:27;;;;;;;3.50;1.20;;;-11.10;99.90;;;;;;5016374;28;20581;-72
2022/07/27 02:13:38;;;;;;;2.37;0.83;;;-11.70;99.90;;;;;;5016085;28;20200;-73
2022/07/27 02:16:04;;;;;;;2.60;0.97;;;-11.30;99.90;;;;;;5016089;28;20239;-73
2022/07/27 02:18:31;;;;;;;3.10;1.37;;;-10.80;99.90;;;;;;5016300;28;20174;-71
2022/07/27 02:20:57;;;;;;;2.63;1.63;;;-10.70;99.90;;;;;;5016446;28;20173;-73
2022/07/27 02:23:23;;;;;;;1.70;1.23;;;-9.30;99.90;;;;;;5016612;28;20162;-72
2022/07/27 02:25:49;;;;;;;2.80;1.50;;;-10.40;99.90;;;;;;5017323;28;20169;-73
2022/07/27 02:28:14;;;;;;;5.70;1.70;;;-12.00;99.90;;;;;;5016646;28;20196;-74
2022/07/27 02:30:40;;;;;;;4.73;1.40;;;-9.40;99.90;;;;;;5016751;28;20615;-72
2022/07/27 02:33:07;;;;;;;6.07;1.67;;;-9.70;99.90;;;;;;5016857;28;20201;-73
2022/07/27 02:35:33;;;;;;;0.90;0.80;;;-10.40;99.90;;;;;;5017799;28;20174;-72
2022/07/27 02:37:59;;;;;;;6.13;1.50;;;-11.60;99.90;;;;;;5020316;28;20240;-73
2022/07/27 02:40:25;;;;;;;3.50;1.33;;;-11.20;99.90;;;;;;5020375;28;20220;-72
2022/07/27 02:42:51;;;;;;;1.60;1.10;;;-11.10;99.90;;;;;;5021070;28;20170;-72
2022/07/27 02:45:16;;;;;;;1.93;1.00;;;-10.40;99.90;;;;;;5019906;28;20239;-73
2022/07/27 02:47:43;;;;;;;3.87;1.40;;;-11.70;99.90;;;;;;5021965;28;20193;-72
2022/07/27 02:50:09;;;;;;;3.97;1.30;;;-9.90;99.90;;;;;;5022730;28;20173;-72
2022/07/27 02:52:36;;;;;;;4.03;1.40;;;-12.10;99.90;;;;;;5023442;28;20197;-72
2022/07/27 02:55:02;;;;;;;1.13;1.03;;;-11.50;99.90;;;;;;5021068;28;20219;-74
2022/07/27 02:57:28;;;;;;;2.00;1.50;;;-12.80;99.90;;;;;;5020735;28;20274;-74
2022/07/27 02:59:53;;;;;;;2.47;1.53;;;-12.10;99.90;;;;;;5020975;28;20468;-72
2022/07/27 03:02:20;;;;;;;5.20;1.77;;;-12.60;99.90;;;;;;5021383;28;20173;-72
2022/07/27 03:04:45;;;;;;;3.20;1.20;;;-12.90;99.90;;;;;;5020350;28;20174;-72
2022/07/27 03:07:11;;;;;;;2.33;1.73;;;-15.00;99.90;;;;;;5019796;28;20169;-72
2022/07/27 03:09:37;;;;;;;4.10;1.43;;;-14.90;99.90;;;;;;5019492;28;20219;-71
2022/07/27 03:12:03;;;;;;;1.40;1.30;;;-16.10;99.90;;;;;;5019623;28;20272;-72
2022/07/27 03:14:29;;;;;;;1.60;1.30;;;-14.70;99.90;;;;;;5018072;28;20188;-72
2022/07/27 03:16:54;;;;;;;3.77;1.50;;;-13.00;99.90;;;;;;5018509;28;20195;-73
2022/07/27 03:19:20;;;;;;;6.77;2.13;;;-13.60;99.90;;;;;;5019210;28;20584;-73
2022/07/27 03:21:46;;;;;;;4.20;1.70;;;-12.10;99.90;;;;;;5019264;28;20177;-71
2022/07/27 03:24:12;;;;;;;2.30;2.13;;;-11.30;99.90;;;;;;5018832;28;20226;-71
2022/07/27 03:26:38;;;;;;;1.63;1.43;;;-12.00;99.90;;;;;;5019209;28;20164;-71
2022/07/27 03:29:03;;;;;;;5.63;1.43;;;-11.70;99.90;;;;;;5018033;28;20227;-72
2022/07/27 03:31:29;;;;;;;4.63;1.90;;;-10.40;99.90;;;;;;5019055;28;20162;-71
2022/07/27 03:33:56;;;;;;;3.43;1.33;;;-10.00;99.90;;;;;;5019146;28;20205;-72
2022/07/27 03:36:21;;;;;;;2.93;1.53;;;-11.80;99.90;;;;;;5018926;28;20244;-74
2022/07/27 03:38:47;;;;;;;4.13;1.60;;;-14.10;99.90;;;;;;5018683;28;20299;-72
2022/07/27 03:41:13;;;;;;;3.73;1.60;;;-14.90;99.90;;;;;;5018906;28;20173;-72
2022/07/27 03:43:39;;;;;;;2.43;1.37;;;-14.30;99.90;;;;;;5018897;28;20647;-72
2022/07/27 03:46:04;;;;;;;3.57;1.43;;;-13.90;99.90;;;;;;5018454;28;20611;-72
2022/07/27 03:48:30;;;;;;;1.57;1.47;;;-14.90;99.90;;;;;;5018842;28;20270;-73
2022/07/27 03:50:56;;;;;;;1.90;1.13;;;-14.60;99.90;;;;;;5018680;28;20215;-73
2022/07/27 03:53:22;;;;;;;1.30;1.20;;;-14.50;99.90;;;;;;5018384;28;20202;-72
2022/07/27 03:55:48;;;;;;;3.03;1.83;;;-14.70;99.90;;;;;;5017150;28;20169;-72
2022/07/27 03:58:14;;;;;;;3.07;1.30;;;-14.70;99.90;;;;;;5017665;28;20251;-71
2022/07/27 04:00:40;;;;;;;2.90;1.40;;;-14.30;99.90;;;;;;5018467;28;20169;-74
2022/07/27 04:03:06;;;;;;;1.93;1.17;;;-14.60;99.90;;;;;;5017486;28;20304;-72
2022/07/27 04:05:32;;;;;;;4.33;1.60;;;-13.30;99.90;;;;;;5018351;28;20177;-73
2022/07/27 04:07:57;;;;;;;1.50;1.10;;;-12.80;99.90;;;;;;5018066;28;20177;-73
2022/07/27 04:10:24;;;;;;;3.23;1.73;;;-12.50;99.90;;;;;;5017011;28;20176;-73
2022/07/27 04:12:50;;;;;;;5.23;1.50;;;-14.10;99.90;;;;;;5017213;28;20193;-73
2022/07/27 04:15:17;;;;;;;2.93;1.93;;;-13.30;99.90;;;;;;5017828;28;20267;-74
2022/07/27 04:17:44;;;;;;;3.33;1.47;;;-15.90;99.90;;;;;;5016883;28;20188;-72
2022/07/27 04:20:10;;;;;;;2.27;1.73;;;-15.50;99.90;;;;;;5017889;28;20170;-72
2022/07/27 04:22:36;;;;;;;2.33;2.13;;;-15.00;99.90;;;;;;5017826;28;20180;-72
2022/07/27 04:25:02;;;;;;;3.33;1.50;;;-13.70;99.90;;;;;;5017990;28;20532;-72
2022/07/27 04:27:28;;;;;;;1.93;1.83;;;-12.50;99.90;;;;;;5017781;28;20188;-72
2022/07/27 04:29:53;;;;;;;3.17;1.40;;;-14.40;99.90;;;;;;5016826;28;20177;-72
2022/07/27 04:32:19;;;;;;;2.60;1.13;;;-10.10;99.90;;;;;;5017569;28;20200;-72
2022/07/27 04:34:45;;;;;;;2.47;1.50;;;-11.20;99.90;;;;;;5017826;28;20165;-73
2022/07/27 04:37:11;;;;;;;3.87;1.33;;;-10.80;99.90;;;;;;5017315;28;20676;-72
2022/07/27 04:39:36;;;;;;;4.23;1.63;;;-11.40;99.90;;;;;;5017600;28;20170;-72
2022/07/27 04:42:02;;;;;;;5.70;1.20;;;-12.80;99.90;;;;;;5017583;28;20183;-73
2022/07/27 04:44:29;;;;;;;1.50;1.40;;;-12.00;99.90;;;;;;5017450;28;20238;-73
2022/07/27 04:46:55;;;;;;;1.77;1.63;;;-13.80;99.90;;;;;;5017329;28;20200;-73
2022/07/27 04:49:20;;;;;;;1.60;1.50;;;-13.80;99.90;;;;;;5017395;28;20180;-72
2022/07/27 04:51:46;;;;;;;1.80;1.70;;;-12.50;99.90;;;;;;5016019;28;20235;-72
2022/07/27 04:54:12;;;;;;;3.17;1.87;;;-12.90;99.90;;;;;;5017302;28;20248;-72
2022/07/27 04:56:38;;;;;;;2.03;1.40;;;-12.50;99.90;;;;;;5017188;28;20622;-72
2022/07/27 04:59:04;;;;;;;1.97;1.70;;;-13.40;99.90;;;;;;5017680;28;20236;-73
2022/07/27 05:01:29;;;;;;;5.20;2.33;;;-14.10;99.90;;;;;;5016003;28;20581;-73
2022/07/27 05:03:55;;;;;;;5.57;2.60;;;-10.80;99.90;;;;;;5015912;28;20176;-73
2022/07/27 05:06:21;;;;;;;1.87;1.60;;;-13.40;99.90;;;;;;5016016;28;20209;-73
2022/07/27 05:08:47;;;;;;;2.97;2.67;;;-11.80;99.90;;;;;;5016769;28;20248;-71
2022/07/27 05:11:13;;;;;;;1.90;1.70;;;-12.40;99.90;;;;;;5017035;28;20607;-72
2022/07/27 05:13:39;;;;;;;2.87;1.40;;;-13.50;99.90;;;;;;5016940;28;20664;-71
2022/07/27 05:16:09;;;;;;;3.43;1.93;;;-11.40;99.90;;;;;;5016542;28;20192;-72
2022/07/27 05:18:38;;;;;;;3.20;2.47;;;-13.20;99.90;;;;;;5016796;28;20569;-73
2022/07/27 05:21:06;;;;;;;3.80;1.80;;;-12.60;99.90;;;;;;5015889;28;20172;-72
2022/07/27 05:23:33;;;;;;;4.67;1.97;;;-12.10;99.90;;;;;;5016757;28;20179;-73
2022/07/27 05:25:58;;;;;;;2.97;2.53;;;-10.50;99.90;;;;;;5016715;28;20295;-73
2022/07/27 05:28:24;;;;;;;4.60;2.37;;;-11.70;99.90;;;;;;5016704;28;20521;-74
2022/07/27 05:30:50;;;;;;;2.97;1.87;;;-12.30;99.90;;;;;;5016897;28;20487;-73
2022/07/27 05:33:16;;;;;;;4.60;1.90;;;-11.40;99.90;;;;;;5016213;28;20247;-73
2022/07/27 05:35:42;;;;;;;2.13;1.77;;;-11.80;99.90;;;;;;5016590;28;20176;-72
2022/07/27 05:38:08;;;;;;;2.00;1.50;;;-11.00;99.90;;;;;;5015500;28;20542;-72
2022/07/27 05:40:34;;;;;;;2.63;2.13;;;-11.10;99.90;;;;;;5016484;28;20276;-73
2022/07/27 05:42:59;;;;;;;5.30;2.20;;;-10.60;99.90;;;;;;5016594;28;20174;-72
2022/07/27 05:45:25;;;;;;;2.07;1.57;;;-10.80;99.90;;;;;;5015447;28;20181;-73
2022/07/27 05:47:53;;;;;;;3.57;2.07;;;-14.00;99.90;;;;;;5016043;28;20205;-72
2022/07/27 05:50:19;;;;;;;6.87;1.97;;;-11.80;99.90;;;;;;5016492;28;20312;-73
2022/07/27 05:52:45;;;;;;;5.07;2.13;;;-13.30;99.90;;;;;;5015161;28;20216;-73
2022/07/27 05:55:12;;;;;;;2.80;1.93;;;-11.90;99.90;;;;;;5016262;28;20489;-73
2022/07/27 05:57:40;;;;;;;6.10;2.70;;;-11.90;99.90;;;;;;5016206;28;20247;-73
2022/07/27 06:00:07;;;;;;;3.13;2.23;;;-11.10;99.90;;;;;;5015129;28;20169;-75
2022/07/27 06:02:32;;;;;;;2.97;2.47;;;-12.10;99.90;;;;;;5014890;28;20169;-74
2022/07/27 06:04:58;;;;;;;5.70;1.97;;;-11.40;99.90;;;;;;5014464;28;20180;-73
2022/07/27 06:10:10;;;;;;;3.03;1.70;;;-14.50;99.90;;;;;;5016266;28;20184;-74
2022/07/27 06:12:41;;;;;;;6.13;2.53;;;-12.70;99.90;;;;;;5006627;28;20193;-73
2022/07/27 06:15:08;;;;;;;1.80;1.67;;;-13.50;99.90;;;;;;5004114;28;20185;-72
2022/07/27 06:17:35;;;;;;;1.33;1.23;;;-12.10;99.90;;;;;;5003774;28;20166;-72
2022/07/27 06:20:02;;;;;;;3.17;1.77;;;-11.70;99.90;;;;;;5006135;28;20197;-73
2022/07/27 06:22:27;;;;;;;3.47;2.50;;;-12.70;99.90;;;;;;5004885;28;20186;-73
2022/07/27 06:24:53;;;;;;;3.03;1.13;;;-12.80;99.90;;;;;;5013195;28;20173;-74
2022/07/27 06:27:19;;;;;;;2.00;1.60;;;-11.50;99.90;;;;;;5015956;28;20173;-76
2022/07/27 06:29:45;;;;;;;2.33;1.47;;;-10.40;99.90;;;;;;5007232;28;20513;-74
2022/07/27 06:32:11;;;;;;;5.03;1.37;;;-13.90;99.90;;;;;;5003058;28;20204;-74
2022/07/27 06:34:36;;;;;;;5.80;1.60;;;-9.90;99.90;;;;;;5006725;28;20483;-74
2022/07/27 06:37:03;;;;;;;4.00;1.93;;;-11.50;99.90;;;;;;5001894;28;20652;-73
2022/07/27 06:39:29;;;;;;;3.23;2.27;;;-13.00;99.90;;;;;;5015676;28;20162;-75
2022/07/27 06:41:55;;;;;;;6.53;1.37;;;-10.80;99.90;;;;;;5015262;28;20166;-74
2022/07/27 06:44:21;;;;;;;1.83;0.97;;;-11.70;99.90;;;;;;5015644;28;20264;-75
2022/07/27 06:46:47;;;;;;;1.50;0.97;;;-12.20;99.90;;;;;;5006310;28;20269;-74
2022/07/27 06:49:12;;;;;;;2.87;0.90;;;-11.10;99.90;;;;;;4995868;28;20167;-75
2022/07/27 06:51:41;;;;;;;2.13;0.90;;;-10.80;99.90;;;;;;5008947;28;20181;-76
2022/07/27 06:54:07;;;;;;;1.73;1.07;;;-7.70;99.90;;;;;;5014495;28;20280;-74
2022/07/27 06:56:33;;;;;;;8.60;1.17;;;-7.50;99.90;;;;;;5010635;28;20733;-75
2022/07/27 06:58:59;;;;;;;3.10;1.03;;;-8.30;99.90;;;;;;4995581;28;20263;-75
2022/07/27 07:01:25;;;;;;;6.93;2.17;;;-7.50;99.90;;;;;;4993734;28;20186;-76
2022/07/27 07:03:51;;;;;;;1.50;1.40;;;-8.70;99.90;;;;;;4996528;28;20178;-76
2022/07/27 07:06:17;;;;;;;2.57;1.30;;;-9.30;99.90;;;;;;4995020;28;20189;-77
2022/07/27 07:08:43;;;;;;;9.23;1.90;;;-8.00;99.90;;;;;;4994891;28;20190;-76
2022/07/27 07:11:10;;;;;;;4.20;1.23;;;-7.30;99.90;;;;;;4995232;28;20185;-77
2022/07/27 07:13:36;;;;;;;1.40;0.80;;;-6.70;99.90;;;;;;4997020;28;20579;-74
2022/07/27 07:16:03;;;;;;;2.63;0.90;;;-7.10;99.90;;;;;;5012099;28;20197;-73
2022/07/27 07:18:28;;;;;;;4.70;1.57;;;-6.90;99.90;;;;;;5018908;28;20481;-73
2022/07/27 07:20:54;;;;;;;2.77;0.80;;;-6.20;99.90;;;;;;5014938;28;20481;-73
2022/07/27 07:23:20;;;;;;;3.87;0.57;;;-7.60;99.90;;;;;;5015286;28;20194;-74
2022/07/27 07:25:46;;;;;;;2.80;0.80;;;-6.50;99.90;;;;;;5014956;28;20216;-74
2022/07/27 07:28:12;;;;;;;1.90;0.87;;;-7.80;99.90;;;;;;5013405;28;20185;-73
2022/07/27 07:30:38;;;;;;;1.23;0.93;;;-8.10;99.90;;;;;;5014057;28;20180;-74
2022/07/27 07:33:04;;;;;;;0.70;0.70;;;-7.40;99.90;;;;;;5010586;28;20232;-74
2022/07/27 07:35:31;;;;;;;1.20;0.80;;;-5.80;99.90;;;;;;4998546;28;20220;-76
2022/07/27 07:37:57;;;;;;;2.30;1.13;;;-6.20;99.90;;;;;;4998165;28;20174;-78
2022/07/27 07:40:24;;;;;;;3.23;0.90;;;-6.30;99.90;;;;;;5011042;28;20180;-75
2022/07/27 07:42:59;;;;;;;3.50;0.70;;;-5.50;99.90;;;;;;5016801;28;20584;-76
2022/07/27 07:45:25;;;;;;;2.13;0.63;;;-5.30;99.90;;;;;;5017675;28;20203;-73
2022/07/27 07:47:52;;;;;;;3.30;0.90;;;-4.60;99.90;;;;;;5017885;28;20276;-74
2022/07/27 07:50:19;;;;;;;3.50;1.20;;;-4.70;99.90;;;;;;5018059;28;20173;-74
2022/07/27 07:52:47;;;;;;;2.07;1.27;;;-3.90;99.90;;;;;;5016967;28;20285;-75
2022/07/27 07:55:18;;;;;;;2.90;1.67;;;-3.40;99.90;;;;;;5018108;28;20172;-76
2022/07/27 07:57:43;;;;;;;3.47;1.40;;;-3.50;99.90;;;;;;5017606;28;20315;-73
2022/07/27 08:00:10;;;;;;;0.93;0.63;;;-4.00;99.90;;;;;;5016987;28;20264;-75
2022/07/27 08:02:47;;;;;;;2.67;1.10;;;-3.70;99.90;;;;;;5017961;28;20177;-74
2022/07/27 08:05:13;;;;;;;5.13;0.83;;;-4.80;99.90;;;;;;5018012;28;20231;-75
2022/07/27 08:07:41;;;;;;;0.97;0.70;;;-4.20;99.90;;;;;;5017362;28;20170;-74
2022/07/27 08:10:08;;;;;;;2.73;0.80;;;-2.10;99.90;;;;;;5017706;28;20256;-75
2022/07/27 08:12:35;;;;;;;3.23;0.90;;;-3.50;99.90;;;;;;5000865;28;20193;-74
2022/07/27 08:15:01;;;;;;;1.47;0.50;;;-4.20;99.90;;;;;;4998080;28;20532;-75
2022/07/27 08:17:27;;;;;;;2.27;0.80;;;-2.40;99.90;;;;;;4998297;28;20171;-75
2022/07/27 08:19:52;;;;;;;1.07;0.80;;;-2.10;99.90;;;;;;5017433;28;20260;-75
2022/07/27 08:22:18;;;;;;;1.67;0.47;;;-2.80;99.90;;;;;;5017651;28;20565;-75
2022/07/27 08:24:44;;;;;;;1.27;1.10;;;-2.80;99.90;;;;;;5017428;28;20203;-76
2022/07/27 08:27:10;;;;;;;1.80;0.80;;;-4.70;99.90;;;;;;5016685;28;20174;-75
2022/07/27 08:29:35;;;;;;;2.63;0.80;;;-2.90;99.90;;;;;;5017326;28;20181;-75
2022/07/27 08:32:01;;;;;;;1.83;1.10;;;-3.40;99.90;;;;;;5017524;28;20173;-74
2022/07/27 08:34:27;;;;;;;1.57;0.90;;;-2.90;99.80;;;;;;5017591;28;20208;-75
2022/07/27 08:36:53;;;;;;;2.40;0.60;;;-3.00;99.90;;;;;;5015789;28;20581;-74
2022/07/27 08:39:19;;;;;;;0.63;0.63;;;-2.60;98.70;;;;;;5004937;28;20669;-74
2022/07/27 08:41:45;;;;;;;2.50;0.80;;;-2.20;99.10;;;;;;4997993;28;20502;-72
2022/07/27 08:44:13;;;;;;;2.67;0.73;;;-2.20;98.60;;;;;;5012112;28;20189;-72
2022/07/27 08:46:41;;;;;;;1.97;1.07;;;-3.10;98.70;;;;;;5016212;28;20272;-73
2022/07/27 08:49:08;;;;;;;1.30;1.00;;;-3.10;98.90;;;;;;5015994;28;20212;-74
2022/07/27 08:51:34;;;;;;;2.63;1.03;;;-4.00;98.00;;;;;;5016466;28;20177;-75
2022/07/27 08:54:00;;;;;;;3.23;1.23;;;-3.70;98.30;;;;;;5016841;28;20212;-75
2022/07/27 08:56:26;;;;;;;0.97;0.87;;;-3.20;96.80;;;;;;5016966;28;20173;-74
2022/07/27 08:58:52;;;;;;;1.13;0.70;;;-2.30;95.70;;;;;;5017814;28;20205;-75
2022/07/27 09:01:18;;;;;;;2.13;1.20;;;-4.50;95.00;;;;;;5017019;28;20170;-73
2022/07/27 09:03:45;;;;;;;3.03;0.50;;;-1.90;95.50;;;;;;4997943;28;20178;-74
2022/07/27 09:06:10;;;;;;;0.80;0.80;;;-0.20;95.50;;;;;;5013391;28;20181;-75
2022/07/27 09:08:40;;;;;;;2.10;0.67;;;-1.20;94.40;;;;;;5017785;28;20438;-74
2022/07/27 09:11:24;;;;;;;2.53;0.93;;;-3.40;93.00;;;;;;5022187;28;20182;-75
2022/07/27 09:14:00;;;;;;;0.70;0.40;;;-4.00;92.50;;;;;;5026722;28;20205;-74
2022/07/27 09:16:29;;;;;;;2.47;1.07;;;-2.60;92.40;;;;;;5023237;28;20199;-73
2022/07/27 09:19:00;;;;;;;2.03;0.70;;;-3.40;92.60;;;;;;5024107;28;20177;-73
2022/07/27 09:21:27;;;;;;;1.73;0.90;;;-2.70;92.90;;;;;;5024917;28;20162;-73
2022/07/27 09:24:13;;;;;;;1.33;0.60;;;-2.30;93.40;;;;;;5016946;28;20194;-73
2022/07/27 09:26:40;;;;;;;3.20;0.63;;;-2.80;92.80;;;;;;5016735;28;20182;-73
2022/07/27 09:29:09;;;;;;;1.63;0.60;;;-2.50;93.60;;;;;;5015893;28;20188;-73
2022/07/27 09:31:46;;;;;;;2.63;0.53;;;-2.60;93.90;;;;;;5015776;28;20231;-74
2022/07/27 09:34:24;;;;;;;0.57;0.50;;;-2.70;92.50;;;;;;5014880;28;20205;-72
2022/07/27 09:36:56;;;;;;;0.77;0.60;;;-3.70;92.20;;;;;;5015841;28;20207;-73
2022/07/27 09:39:24;;;;;;;4.53;1.97;;;-3.00;91.40;;;;;;5015870;28;20178;-73
2022/07/27 09:41:52;;;;;;;2.07;1.17;;;-2.50;91.90;;;;;;5015382;28;20173;-72
2022/07/27 09:44:38;;;;;;;2.13;0.70;;;-1.60;92.90;;;;;;5016150;28;20255;-76
2022/07/27 09:47:26;;;;;;;1.00;0.80;;;-1.20;92.80;;;;;;5014357;28;20205;-74
2022/07/27 09:49:54;;;;;;;2.50;0.73;;;-2.50;92.60;;;;;;5015519;28;20189;-73
2022/07/27 09:52:25;;;;;;;0.70;0.70;;;-0.50;92.70;;;;;;5012713;28;20284;-73
2022/07/27 09:54:51;;;;;;;5.60;0.77;;;-1.50;92.60;;;;;;5013242;28;20586;-74
2022/07/27 09:57:20;;;;;;;4.73;1.40;;;-1.90;92.20;;;;;;5015638;28;20172;-73
2022/07/27 09:59:45;;;;;;;1.50;1.37;;;-0.10;91.70;;;;;;5015494;28;20226;-74
2022/07/27 10:02:13;;;;;;;2.23;0.60;;;19.20;97.00;;;;;;5014853;28;20616;-73
2022/07/27 10:04:40;;;;;;;1.27;0.73;;;20.50;97.90;;;;;;4995847;28;20174;-75
2022/07/27 10:07:05;;;;;;;2.60;1.10;;;20.70;97.40;;;;;;5004557;28;20170;-75
2022/07/27 10:09:32;;;;;;;0.50;0.50;;;20.70;96.90;;;;;;5015313;28;20177;-74
2022/07/27 10:11:59;;;;;;;2.83;1.07;;;20.90;97.10;;;;;;5015824;28;20597;-74
2022/07/27 10:14:25;;;;;;;1.17;0.97;;;20.80;96.90;;;;;;5015008;28;20173;-75
2022/07/27 10:16:53;;;;;;;1.43;0.70;;;20.60;97.20;;;;;;5015390;28;20185;-77
2022/07/27 10:19:26;;;;;;;1.60;0.50;;;1.50;91.20;;;;;;5015350;28;20580;-76
2022/07/27 10:21:52;;;;;;;2.43;1.00;;;1.00;90.60;;;;;;5014860;28;20227;-76
2022/07/27 10:24:38;;;;;;;2.40;0.70;;;20.70;96.30;;;;;;5014950;28;20616;-75
2022/07/27 10:27:19;;;;;;;1.97;0.50;;;21.70;96.60;;;;;;5015077;28;20600;-76
2022/07/27 10:29:47;;;;;;;1.60;1.30;;;21.50;95.80;;;;;;5015323;28;20177;-75
2022/07/27 10:32:23;;;;;;;4.47;0.83;;;-6.10;84.10;;;;;;5013696;28;20188;-75
2022/07/27 10:34:49;;;;;;;2.70;0.50;;;-5.20;83.60;;;;;;5015258;28;20187;-75
2022/07/27 10:37:25;;;;;;;2.23;0.70;;;-2.50;86.00;;;;;;5015315;28;20178;-73
2022/07/27 10:40:33;;;;;;;1.60;0.60;;;-0.60;90.20;;;;;;5015216;28;20169;-77
2022/07/27 10:42:40;;;;;;;2.40;0.40;;;-2.90;87.80;;;;;;5000174;28;20194;-74
2022/07/27 10:45:12;;;;;;;3.43;0.70;;;19.80;93.10;;;;;;4995478;28;20186;-76
2022/07/27 10:47:40;;;;;;;1.80;0.83;;;22.40;94.40;;;;;;4994035;28;20214;-75
2022/07/27 10:50:14;;;;;;;5.10;0.93;;;22.30;94.00;;;;;;5007300;28;20264;-75
2022/07/27 10:52:41;;;;;;;6.00;1.73;;;22.10;93.90;;;;;;4999627;28;20221;-74
2022/07/27 10:55:41;;;;;;;0.87;0.80;;;22.10;93.40;;;;;;5005117;28;20182;-75
2022/07/27 10:58:10;;;;;;;2.07;0.90;;;22.00;93.00;;;;;;5001151;28;20188;-74
2022/07/27 11:00:47;;;;;;;3.87;1.30;;;21.90;94.00;;;;;;5012745;28;20255;-76
2022/07/27 11:03:40;;;;;;;1.87;1.23;;;21.90;94.40;;;;;;5014019;28;20251;-76
2022/07/27 11:06:24;;;;;;;0.53;0.53;;;21.80;94.10;;;;;;5014670;28;20197;-76
2022/07/27 11:08:50;;;;;;;1.07;0.97;;;22.00;95.60;;;;;;5014188;28;20182;-74
2022/07/27 11:11:19;;;;;;;1.60;1.13;;;22.20;94.30;;;;;;4998686;28;20182;-75
2022/07/27 11:13:46;;;;;;;1.90;0.90;;;21.70;93.00;;;;;;4997426;28;20194;-75
2022/07/27 11:16:15;;;;;;;2.10;1.40;;;22.90;91.30;;;;;;4998839;28;20206;-76
2022/07/27 11:18:43;;;;;;;1.20;1.03;;;22.80;90.60;;;;;;5016377;28;20624;-74
2022/07/27 11:21:36;;;;;;;2.10;1.40;;;22.20;91.00;;;;;;5017656;28;20181;-76
2022/07/27 11:24:15;;;;;;;3.03;1.33;;;21.40;89.40;;;;;;5015713;28;20324;-75
2022/07/27 11:26:43;;;;;;;3.90;2.27;;;22.10;89.40;;;;;;5018097;28;20186;-76
2022/07/27 11:29:11;;;;;;;1.33;1.27;;;22.80;90.60;;;;;;5017970;28;20251;-75
2022/07/27 11:31:39;;;;;;;1.50;0.90;;;22.80;90.30;;;;;;5008124;28;20184;-76
2022/07/27 11:34:05;;;;;;;5.73;1.27;;;23.30;90.10;;;;;;4998155;28;20405;-75
2022/07/27 11:36:40;;;;;;;2.33;2.07;;;22.50;88.40;;;;;;4999458;28;20623;-74
2022/07/27 11:39:11;;;;;;;2.73;1.40;;;22.40;89.40;;;;;;5012616;28;20267;-75
2022/07/27 11:41:39;;;;;;;4.10;3.70;;;22.20;90.10;;;;;;5018555;28;20169;-75
2022/07/27 11:44:12;;;;;;;1.57;1.47;;;22.40;92.10;;;;;;5017570;28;20173;-75
2022/07/27 11:46:43;;;;;;;3.90;2.10;;;22.40;91.50;;;;;;5017752;28;20221;-76
2022/07/27 11:49:14;;;;;;;2.43;0.90;;;22.50;92.00;;;;;;5016848;28;20177;-75
2022/07/27 11:51:41;;;;;;;2.30;0.97;;;22.60;90.40;;;;;;5018390;28;20185;-73
2022/07/27 11:54:18;;;;;;;1.23;1.13;;;22.50;90.40;;;;;;5018420;28;20198;-74
2022/07/27 11:56:48;;;;;;;1.67;1.20;;;22.50;90.90;;;;;;5020069;28;20195;-73
2022/07/27 11:59:16;;;;;;;2.93;1.67;;;22.50;90.90;;;;;;5019399;28;20643;-73
2022/07/27 12:01:44;;;;;;;2.27;1.00;;;22.30;91.70;;;;;;5019235;28;20180;-73
2022/07/27 12:04:20;;;;;;;1.93;1.20;;;21.70;91.40;;;;;;5021238;28;20181;-75
2022/07/27 12:07:05;;;;;;;1.63;1.00;;;23.40;92.00;;;;;;5017615;28;20173;-75
2022/07/27 12:09:39;;;;;;;2.20;2.00;;;23.40;90.90;;;;;;5001252;28;20185;-74
2022/07/27 12:12:22;;;;;;;4.10;1.73;;;23.40;91.90;;;;;;5017019;28;20251;-74
2022/07/27 12:14:50;;;;;;;1.77;1.37;;;24.00;91.20;;;;;;5017347;28;20240;-75
2022/07/27 12:17:25;;;;;;;2.17;1.17;;;24.80;91.40;;;;;;5016063;28;20585;-74
2022/07/27 12:20:07;;;;;;;1.73;0.73;;;25.80;90.40;;;;;;5017069;28;20662;-74
2022/07/27 12:22:45;;;;;;;1.87;1.43;;;26.60;86.50;;;;;;5016087;28;20596;-75
2022/07/27 12:25:32;;;;;;;2.23;0.80;;;-40.00;46.50;;;;;;5003073;28;20186;-73
2022/07/27 12:28:24;;;;;;;2.60;1.40;;;28.00;77.30;;;;;;4996615;28;20178;-75
2022/07/27 12:30:51;;;;;;;0.70;0.50;;;28.60;76.70;;;;;;4997002;28;20329;-74
2022/07/27 12:33:33;;;;;;;1.75;1.10;;;29.20;72.40;;;;;;4996732;28;20675;-77
2022/07/27 12:36:01;;;;;;;0.95;0.75;;;29.50;74.80;;;;;;4996478;28;20186;-75
2022/07/27 12:38:37;;;;;;;3.97;2.55;;;30.00;71.40;;;;;;4996803;28;20182;-74
2022/07/27 12:41:03;;;;;;;1.27;1.00;;;30.10;71.70;;;;;;5000208;28;20625;-73
2022/07/27 12:43:28;;;;;;;0.75;0.70;;;30.00;69.70;;;;;;4998755;28;20269;-74
2022/07/27 12:45:54;;;;;;;0.77;0.68;;;30.40;72.10;;;;;;4996672;28;20192;-74
2022/07/27 12:48:24;;;;;;;4.13;0.80;;;29.60;66.90;;;;;;5001751;28;20643;-75
2022/07/27 12:51:20;;;;;;;0.80;0.70;;;28.40;69.70;;;;;;4997214;28;20185;-74
2022/07/27 12:53:46;;;;;;;2.00;1.17;;;26.50;67.10;;;;;;4996932;28;20210;-73